sensor_id;sensor_type;location;lat;lon;timestamp;P1;durP1;ratioP1;P2;durP2;ratioP2
33836;SDS011;20140;49.356;8.812;2023-05-10T00:00:41;1.93;;;1.83;;
33836;SDS011;20140;49.356;8.812;2023-05-10T00:03:06;2.00;;;1.90;;
33836;SDS011;20140;49.356;8.812;2023-05-10T00:05:32;2.50;;;2.30;;
33836;SDS011;20140;49.356;8.812;2023-05-10T00:07:57;3.27;;;2.07;;
33836;SDS011;20140;49.356;8.812;2023-05-10T00:10:23;2.00;;;1.80;;
33836;SDS011;20140;49.356;8.812;2023-05-10T00:12:48;2.20;;;2.00;;
33836;SDS011;20140;49.356;8.812;2023-05-10T00:15:14;3.60;;;2.20;;
33836;SDS011;20140;49.356;8.812;2023-05-10T00:17:39;2.87;;;2.50;;
33836;SDS011;20140;49.356;8.812;2023-05-10T00:20:05;2.42;;;2.22;;
33836;SDS011;20140;49.356;8.812;2023-05-10T00:22:31;3.00;;;2.70;;
33836;SDS011;20140;49.356;8.812;2023-05-10T00:24:57;2.40;;;2.20;;
33836;SDS011;20140;49.356;8.812;2023-05-10T00:27:23;2.33;;;2.13;;
33836;SDS011;20140;49.356;8.812;2023-05-10T00:29:49;2.47;;;2.27;;
33836;SDS011;20140;49.356;8.812;2023-05-10T00:32:14;2.60;;;2.40;;
33836;SDS011;20140;49.356;8.812;2023-05-10T00:34:40;2.97;;;2.65;;
33836;SDS011;20140;49.356;8.812;2023-05-10T00:37:05;2.42;;;2.22;;
33836;SDS011;20140;49.356;8.812;2023-05-10T00:39:31;3.17;;;2.37;;
33836;SDS011;20140;49.356;8.812;2023-05-10T00:41:56;3.33;;;2.10;;
33836;SDS011;20140;49.356;8.812;2023-05-10T00:44:22;2.50;;;2.30;;
33836;SDS011;20140;49.356;8.812;2023-05-10T00:46:48;2.50;;;2.30;;
33836;SDS011;20140;49.356;8.812;2023-05-10T00:49:14;3.13;;;2.40;;
33836;SDS011;20140;49.356;8.812;2023-05-10T00:51:40;3.22;;;2.45;;
33836;SDS011;20140;49.356;8.812;2023-05-10T00:54:07;2.40;;;2.20;;
33836;SDS011;20140;49.356;8.812;2023-05-10T00:56:35;3.60;;;2.15;;
33836;SDS011;20140;49.356;8.812;2023-05-10T00:59:01;2.10;;;1.90;;
33836;SDS011;20140;49.356;8.812;2023-05-10T01:01:27;3.53;;;2.30;;
33836;SDS011;20140;49.356;8.812;2023-05-10T01:03:53;2.70;;;1.80;;
33836;SDS011;20140;49.356;8.812;2023-05-10T01:06:20;4.57;;;2.40;;
33836;SDS011;20140;49.356;8.812;2023-05-10T01:08:45;2.40;;;2.20;;
33836;SDS011;20140;49.356;8.812;2023-05-10T01:11:12;2.30;;;2.13;;
33836;SDS011;20140;49.356;8.812;2023-05-10T01:13:39;2.75;;;2.20;;
33836;SDS011;20140;49.356;8.812;2023-05-10T01:16:07;4.18;;;2.17;;
33836;SDS011;20140;49.356;8.812;2023-05-10T01:18:33;2.50;;;2.30;;
33836;SDS011;20140;49.356;8.812;2023-05-10T01:21:48;3.25;;;2.40;;
33836;SDS011;20140;49.356;8.812;2023-05-10T01:27:07;1.97;;;1.80;;
33836;SDS011;20140;49.356;8.812;2023-05-10T01:33:18;1.75;;;1.20;;
33836;SDS011;20140;49.356;8.812;2023-05-10T01:36:03;3.15;;;1.35;;
33836;SDS011;20140;49.356;8.812;2023-05-10T01:46:35;1.00;;;1.00;;
33836;SDS011;20140;49.356;8.812;2023-05-10T01:49:02;2.20;;;1.70;;
33836;SDS011;20140;49.356;8.812;2023-05-10T01:51:38;1.93;;;1.73;;
33836;SDS011;20140;49.356;8.812;2023-05-10T01:54:13;2.60;;;2.40;;
33836;SDS011;20140;49.356;8.812;2023-05-10T01:56:41;2.08;;;1.50;;
33836;SDS011;20140;49.356;8.812;2023-05-10T01:59:09;1.85;;;1.17;;
33836;SDS011;20140;49.356;8.812;2023-05-10T02:01:38;1.58;;;1.48;;
33836;SDS011;20140;49.356;8.812;2023-05-10T02:04:05;2.40;;;1.67;;
33836;SDS011;20140;49.356;8.812;2023-05-10T02:06:33;1.80;;;1.47;;
33836;SDS011;20140;49.356;8.812;2023-05-10T02:09:00;1.80;;;1.55;;
33836;SDS011;20140;49.356;8.812;2023-05-10T02:11:28;2.90;;;1.92;;
33836;SDS011;20140;49.356;8.812;2023-05-10T02:13:55;1.90;;;1.80;;
33836;SDS011;20140;49.356;8.812;2023-05-10T02:16:22;1.92;;;1.70;;
33836;SDS011;20140;49.356;8.812;2023-05-10T02:18:51;1.60;;;1.50;;
33836;SDS011;20140;49.356;8.812;2023-05-10T02:21:17;3.33;;;1.55;;
33836;SDS011;20140;49.356;8.812;2023-05-10T02:23:45;1.67;;;1.58;;
33836;SDS011;20140;49.356;8.812;2023-05-10T02:26:13;1.75;;;1.65;;
33836;SDS011;20140;49.356;8.812;2023-05-10T02:28:40;1.92;;;1.60;;
33836;SDS011;20140;49.356;8.812;2023-05-10T02:31:07;1.70;;;1.60;;
33836;SDS011;20140;49.356;8.812;2023-05-10T02:33:35;3.08;;;2.30;;
33836;SDS011;20140;49.356;8.812;2023-05-10T02:36:03;1.90;;;1.80;;
33836;SDS011;20140;49.356;8.812;2023-05-10T02:38:30;1.93;;;1.67;;
33836;SDS011;20140;49.356;8.812;2023-05-10T02:40:57;3.03;;;1.65;;
33836;SDS011;20140;49.356;8.812;2023-05-10T02:43:24;2.20;;;1.63;;
33836;SDS011;20140;49.356;8.812;2023-05-10T02:45:50;1.63;;;1.52;;
33836;SDS011;20140;49.356;8.812;2023-05-10T02:48:16;1.70;;;1.60;;
33836;SDS011;20140;49.356;8.812;2023-05-10T02:50:44;2.40;;;2.00;;
33836;SDS011;20140;49.356;8.812;2023-05-10T02:53:10;1.98;;;1.77;;
33836;SDS011;20140;49.356;8.812;2023-05-10T02:55:40;1.75;;;1.63;;
33836;SDS011;20140;49.356;8.812;2023-05-10T02:58:07;1.73;;;1.52;;
33836;SDS011;20140;49.356;8.812;2023-05-10T03:00:32;1.73;;;1.63;;
33836;SDS011;20140;49.356;8.812;2023-05-10T03:02:58;2.05;;;1.73;;
33836;SDS011;20140;49.356;8.812;2023-05-10T03:05:24;2.37;;;2.00;;
33836;SDS011;20140;49.356;8.812;2023-05-10T03:07:49;2.90;;;1.87;;
33836;SDS011;20140;49.356;8.812;2023-05-10T03:10:16;2.55;;;2.22;;
33836;SDS011;20140;49.356;8.812;2023-05-10T03:15:59;2.95;;;2.45;;
33836;SDS011;20140;49.356;8.812;2023-05-10T03:18:44;2.60;;;2.40;;
33836;SDS011;20140;49.356;8.812;2023-05-10T03:21:28;3.42;;;2.03;;
33836;SDS011;20140;49.356;8.812;2023-05-10T03:24:07;2.20;;;1.85;;
33836;SDS011;20140;49.356;8.812;2023-05-10T03:26:36;2.70;;;2.47;;
33836;SDS011;20140;49.356;8.812;2023-05-10T03:29:03;6.22;;;2.58;;
33836;SDS011;20140;49.356;8.812;2023-05-10T03:31:30;2.78;;;2.40;;
33836;SDS011;20140;49.356;8.812;2023-05-10T03:33:56;3.45;;;2.78;;
33836;SDS011;20140;49.356;8.812;2023-05-10T03:36:22;3.10;;;2.58;;
33836;SDS011;20140;49.356;8.812;2023-05-10T03:38:47;3.67;;;2.83;;
33836;SDS011;20140;49.356;8.812;2023-05-10T03:41:13;3.27;;;2.97;;
33836;SDS011;20140;49.356;8.812;2023-05-10T03:43:38;3.40;;;3.00;;
33836;SDS011;20140;49.356;8.812;2023-05-10T03:46:04;3.45;;;2.83;;
33836;SDS011;20140;49.356;8.812;2023-05-10T03:48:31;6.18;;;3.75;;
33836;SDS011;20140;49.356;8.812;2023-05-10T03:50:57;3.50;;;3.20;;
33836;SDS011;20140;49.356;8.812;2023-05-10T03:53:23;3.30;;;2.93;;
33836;SDS011;20140;49.356;8.812;2023-05-10T03:55:49;4.00;;;3.33;;
33836;SDS011;20140;49.356;8.812;2023-05-10T03:58:14;3.97;;;3.17;;
33836;SDS011;20140;49.356;8.812;2023-05-10T04:00:40;4.72;;;3.65;;
33836;SDS011;20140;49.356;8.812;2023-05-10T04:03:10;4.18;;;3.78;;
33836;SDS011;20140;49.356;8.812;2023-05-10T04:05:36;4.85;;;3.80;;
33836;SDS011;20140;49.356;8.812;2023-05-10T04:08:02;4.30;;;3.75;;
33836;SDS011;20140;49.356;8.812;2023-05-10T04:10:28;3.92;;;3.53;;
33836;SDS011;20140;49.356;8.812;2023-05-10T04:12:53;5.37;;;4.10;;
33836;SDS011;20140;49.356;8.812;2023-05-10T04:15:19;5.30;;;4.17;;
33836;SDS011;20140;49.356;8.812;2023-05-10T04:17:45;4.13;;;3.70;;
33836;SDS011;20140;49.356;8.812;2023-05-10T04:20:11;4.70;;;3.95;;
33836;SDS011;20140;49.356;8.812;2023-05-10T04:22:36;4.18;;;3.63;;
33836;SDS011;20140;49.356;8.812;2023-05-10T04:25:02;4.07;;;3.67;;
33836;SDS011;20140;49.356;8.812;2023-05-10T04:27:28;3.85;;;3.53;;
33836;SDS011;20140;49.356;8.812;2023-05-10T04:29:53;4.03;;;3.50;;
33836;SDS011;20140;49.356;8.812;2023-05-10T04:32:19;4.10;;;3.43;;
33836;SDS011;20140;49.356;8.812;2023-05-10T04:34:45;4.10;;;3.53;;
33836;SDS011;20140;49.356;8.812;2023-05-10T04:37:10;6.23;;;4.63;;
33836;SDS011;20140;49.356;8.812;2023-05-10T04:39:36;5.30;;;4.53;;
33836;SDS011;20140;49.356;8.812;2023-05-10T04:42:02;4.95;;;4.00;;
33836;SDS011;20140;49.356;8.812;2023-05-10T04:44:28;4.83;;;4.27;;
33836;SDS011;20140;49.356;8.812;2023-05-10T04:46:54;5.03;;;4.63;;
33836;SDS011;20140;49.356;8.812;2023-05-10T04:49:20;5.00;;;4.27;;
33836;SDS011;20140;49.356;8.812;2023-05-10T04:51:45;5.17;;;3.90;;
33836;SDS011;20140;49.356;8.812;2023-05-10T04:54:11;5.72;;;4.53;;
33836;SDS011;20140;49.356;8.812;2023-05-10T04:56:37;5.32;;;4.38;;
33836;SDS011;20140;49.356;8.812;2023-05-10T04:59:02;4.70;;;4.30;;
33836;SDS011;20140;49.356;8.812;2023-05-10T05:01:28;5.50;;;4.40;;
33836;SDS011;20140;49.356;8.812;2023-05-10T05:03:53;6.37;;;4.93;;
33836;SDS011;20140;49.356;8.812;2023-05-10T05:06:19;5.93;;;4.88;;
33836;SDS011;20140;49.356;8.812;2023-05-10T05:08:45;7.43;;;5.57;;
33836;SDS011;20140;49.356;8.812;2023-05-10T05:11:11;5.20;;;4.70;;
33836;SDS011;20140;49.356;8.812;2023-05-10T05:13:37;6.50;;;5.90;;
33836;SDS011;20140;49.356;8.812;2023-05-10T05:16:02;6.45;;;5.30;;
33836;SDS011;20140;49.356;8.812;2023-05-10T05:18:28;6.43;;;5.15;;
33836;SDS011;20140;49.356;8.812;2023-05-10T05:20:53;5.72;;;4.68;;
33836;SDS011;20140;49.356;8.812;2023-05-10T05:23:19;5.93;;;5.10;;
33836;SDS011;20140;49.356;8.812;2023-05-10T05:25:45;4.93;;;4.53;;
33836;SDS011;20140;49.356;8.812;2023-05-10T05:28:11;5.88;;;5.30;;
33836;SDS011;20140;49.356;8.812;2023-05-10T05:30:37;6.03;;;5.27;;
33836;SDS011;20140;49.356;8.812;2023-05-10T05:33:02;7.97;;;4.70;;
33836;SDS011;20140;49.356;8.812;2023-05-10T05:35:28;6.13;;;5.10;;
33836;SDS011;20140;49.356;8.812;2023-05-10T05:37:53;5.95;;;5.35;;
33836;SDS011;20140;49.356;8.812;2023-05-10T05:40:19;5.57;;;4.43;;
33836;SDS011;20140;49.356;8.812;2023-05-10T05:42:45;6.60;;;5.05;;
33836;SDS011;20140;49.356;8.812;2023-05-10T05:45:11;5.47;;;4.90;;
33836;SDS011;20140;49.356;8.812;2023-05-10T05:47:38;6.03;;;5.00;;
33836;SDS011;20140;49.356;8.812;2023-05-10T05:50:04;4.57;;;4.13;;
33836;SDS011;20140;49.356;8.812;2023-05-10T05:52:30;5.60;;;5.10;;
33836;SDS011;20140;49.356;8.812;2023-05-10T05:54:56;5.40;;;4.90;;
33836;SDS011;20140;49.356;8.812;2023-05-10T05:57:21;6.65;;;5.60;;
33836;SDS011;20140;49.356;8.812;2023-05-10T05:59:47;7.22;;;5.95;;
33836;SDS011;20140;49.356;8.812;2023-05-10T06:02:13;6.05;;;5.45;;
33836;SDS011;20140;49.356;8.812;2023-05-10T06:04:38;5.63;;;5.10;;
33836;SDS011;20140;49.356;8.812;2023-05-10T06:07:04;5.87;;;5.27;;
33836;SDS011;20140;49.356;8.812;2023-05-10T06:09:30;5.47;;;4.97;;
33836;SDS011;20140;49.356;8.812;2023-05-10T06:11:55;5.60;;;5.10;;
33836;SDS011;20140;49.356;8.812;2023-05-10T06:14:21;5.25;;;4.65;;
33836;SDS011;20140;49.356;8.812;2023-05-10T06:16:47;6.90;;;5.13;;
33836;SDS011;20140;49.356;8.812;2023-05-10T06:19:12;5.43;;;4.93;;
33836;SDS011;20140;49.356;8.812;2023-05-10T06:21:37;5.50;;;4.73;;
33836;SDS011;20140;49.356;8.812;2023-05-10T06:24:03;5.93;;;5.32;;
33836;SDS011;20140;49.356;8.812;2023-05-10T06:26:30;8.55;;;5.95;;
33836;SDS011;20140;49.356;8.812;2023-05-10T06:28:55;6.17;;;5.57;;
33836;SDS011;20140;49.356;8.812;2023-05-10T06:31:22;6.60;;;5.90;;
33836;SDS011;20140;49.356;8.812;2023-05-10T06:33:48;6.90;;;6.30;;
33836;SDS011;20140;49.356;8.812;2023-05-10T06:36:13;6.50;;;5.87;;
33836;SDS011;20140;49.356;8.812;2023-05-10T06:38:39;6.60;;;5.95;;
33836;SDS011;20140;49.356;8.812;2023-05-10T06:41:04;7.05;;;6.40;;
33836;SDS011;20140;49.356;8.812;2023-05-10T06:43:30;5.37;;;4.87;;
33836;SDS011;20140;49.356;8.812;2023-05-10T06:45:56;4.60;;;4.20;;
33836;SDS011;20140;49.356;8.812;2023-05-10T06:48:22;5.10;;;4.30;;
33836;SDS011;20140;49.356;8.812;2023-05-10T06:50:47;6.57;;;4.57;;
33836;SDS011;20140;49.356;8.812;2023-05-10T06:53:13;5.73;;;4.23;;
33836;SDS011;20140;49.356;8.812;2023-05-10T06:55:39;4.03;;;3.63;;
33836;SDS011;20140;49.356;8.812;2023-05-10T06:58:04;9.43;;;4.43;;
33836;SDS011;20140;49.356;8.812;2023-05-10T07:00:31;4.70;;;4.20;;
33836;SDS011;20140;49.356;8.812;2023-05-10T07:02:56;4.30;;;3.90;;
33836;SDS011;20140;49.356;8.812;2023-05-10T07:05:22;5.90;;;3.92;;
33836;SDS011;20140;49.356;8.812;2023-05-10T07:07:47;5.20;;;3.85;;
33836;SDS011;20140;49.356;8.812;2023-05-10T07:10:13;5.38;;;4.65;;
33836;SDS011;20140;49.356;8.812;2023-05-10T07:12:39;4.30;;;3.83;;
33836;SDS011;20140;49.356;8.812;2023-05-10T07:15:04;4.13;;;3.73;;
33836;SDS011;20140;49.356;8.812;2023-05-10T07:17:31;3.63;;;3.33;;
33836;SDS011;20140;49.356;8.812;2023-05-10T07:19:58;3.80;;;3.40;;
33836;SDS011;20140;49.356;8.812;2023-05-10T07:22:23;3.72;;;3.42;;
33836;SDS011;20140;49.356;8.812;2023-05-10T07:24:49;3.92;;;3.50;;
33836;SDS011;20140;49.356;8.812;2023-05-10T07:27:15;4.78;;;3.85;;
33836;SDS011;20140;49.356;8.812;2023-05-10T07:29:40;4.03;;;3.10;;
33836;SDS011;20140;49.356;8.812;2023-05-10T07:32:06;4.37;;;3.67;;
33836;SDS011;20140;49.356;8.812;2023-05-10T07:34:31;4.20;;;3.63;;
33836;SDS011;20140;49.356;8.812;2023-05-10T07:37:00;4.45;;;2.90;;
33836;SDS011;20140;49.356;8.812;2023-05-10T07:39:26;4.10;;;3.70;;
33836;SDS011;20140;49.356;8.812;2023-05-10T07:41:52;4.57;;;3.90;;
33836;SDS011;20140;49.356;8.812;2023-05-10T07:44:18;4.50;;;4.10;;
33836;SDS011;20140;49.356;8.812;2023-05-10T07:46:45;5.53;;;4.07;;
33836;SDS011;20140;49.356;8.812;2023-05-10T07:49:10;3.73;;;3.43;;
33836;SDS011;20140;49.356;8.812;2023-05-10T07:51:36;3.97;;;3.67;;
33836;SDS011;20140;49.356;8.812;2023-05-10T07:54:02;3.80;;;3.45;;
33836;SDS011;20140;49.356;8.812;2023-05-10T07:56:28;3.90;;;3.57;;
33836;SDS011;20140;49.356;8.812;2023-05-10T07:58:55;4.13;;;3.72;;
33836;SDS011;20140;49.356;8.812;2023-05-10T08:01:21;3.65;;;3.10;;
33836;SDS011;20140;49.356;8.812;2023-05-10T08:03:47;3.03;;;2.53;;
33836;SDS011;20140;49.356;8.812;2023-05-10T08:06:14;3.53;;;3.22;;
33836;SDS011;20140;49.356;8.812;2023-05-10T08:08:40;2.72;;;2.53;;
33836;SDS011;20140;49.356;8.812;2023-05-10T08:11:06;3.90;;;3.10;;
33836;SDS011;20140;49.356;8.812;2023-05-10T08:13:32;3.60;;;3.30;;
33836;SDS011;20140;49.356;8.812;2023-05-10T08:15:57;3.60;;;3.23;;
33836;SDS011;20140;49.356;8.812;2023-05-10T08:18:23;3.70;;;2.65;;
33836;SDS011;20140;49.356;8.812;2023-05-10T08:20:51;3.58;;;2.40;;
33836;SDS011;20140;49.356;8.812;2023-05-10T08:23:16;3.90;;;2.80;;
33836;SDS011;20140;49.356;8.812;2023-05-10T08:25:42;3.00;;;2.73;;
33836;SDS011;20140;49.356;8.812;2023-05-10T08:28:07;3.10;;;2.23;;
33836;SDS011;20140;49.356;8.812;2023-05-10T08:30:33;2.95;;;2.67;;
33836;SDS011;20140;49.356;8.812;2023-05-10T08:32:58;2.87;;;2.67;;
33836;SDS011;20140;49.356;8.812;2023-05-10T08:35:24;3.07;;;2.33;;
33836;SDS011;20140;49.356;8.812;2023-05-10T08:37:50;4.35;;;2.65;;
33836;SDS011;20140;49.356;8.812;2023-05-10T08:40:16;2.83;;;2.17;;
33836;SDS011;20140;49.356;8.812;2023-05-10T08:42:47;2.63;;;2.35;;
33836;SDS011;20140;49.356;8.812;2023-05-10T08:45:20;7.18;;;2.20;;
33836;SDS011;20140;49.356;8.812;2023-05-10T08:47:48;2.20;;;2.05;;
33836;SDS011;20140;49.356;8.812;2023-05-10T08:50:14;2.50;;;2.30;;
33836;SDS011;20140;49.356;8.812;2023-05-10T08:52:41;4.70;;;2.08;;
33836;SDS011;20140;49.356;8.812;2023-05-10T08:55:07;2.73;;;2.03;;
33836;SDS011;20140;49.356;8.812;2023-05-10T08:57:32;2.13;;;1.92;;
33836;SDS011;20140;49.356;8.812;2023-05-10T08:59:59;3.13;;;2.00;;
33836;SDS011;20140;49.356;8.812;2023-05-10T09:02:25;2.20;;;1.73;;
33836;SDS011;20140;49.356;8.812;2023-05-10T09:04:51;2.55;;;1.75;;
33836;SDS011;20140;49.356;8.812;2023-05-10T09:07:17;2.90;;;1.73;;
33836;SDS011;20140;49.356;8.812;2023-05-10T09:09:43;3.50;;;1.60;;
33836;SDS011;20140;49.356;8.812;2023-05-10T09:12:10;1.50;;;1.40;;
33836;SDS011;20140;49.356;8.812;2023-05-10T09:14:36;1.80;;;1.57;;
33836;SDS011;20140;49.356;8.812;2023-05-10T09:17:03;1.95;;;1.55;;
33836;SDS011;20140;49.356;8.812;2023-05-10T09:19:29;3.22;;;1.58;;
33836;SDS011;20140;49.356;8.812;2023-05-10T09:21:55;1.05;;;0.95;;
33836;SDS011;20140;49.356;8.812;2023-05-10T09:24:24;1.70;;;1.50;;
33836;SDS011;20140;49.356;8.812;2023-05-10T09:26:51;1.95;;;1.40;;
33836;SDS011;20140;49.356;8.812;2023-05-10T09:29:16;2.70;;;1.33;;
33836;SDS011;20140;49.356;8.812;2023-05-10T09:31:49;1.30;;;1.07;;
33836;SDS011;20140;49.356;8.812;2023-05-10T09:34:17;2.72;;;1.30;;
33836;SDS011;20140;49.356;8.812;2023-05-10T09:36:51;2.25;;;1.10;;
33836;SDS011;20140;49.356;8.812;2023-05-10T09:39:17;1.10;;;1.00;;
33836;SDS011;20140;49.356;8.812;2023-05-10T09:41:43;4.07;;;2.30;;
33836;SDS011;20140;49.356;8.812;2023-05-10T09:44:09;0.90;;;0.90;;
33836;SDS011;20140;49.356;8.812;2023-05-10T09:46:35;1.63;;;0.85;;
33836;SDS011;20140;49.356;8.812;2023-05-10T09:49:01;1.27;;;0.80;;
33836;SDS011;20140;49.356;8.812;2023-05-10T09:51:26;1.20;;;1.00;;
33836;SDS011;20140;49.356;8.812;2023-05-10T09:54:08;0.80;;;0.80;;
33836;SDS011;20140;49.356;8.812;2023-05-10T09:56:36;2.75;;;0.85;;
33836;SDS011;20140;49.356;8.812;2023-05-10T09:59:05;2.95;;;0.93;;
33836;SDS011;20140;49.356;8.812;2023-05-10T10:01:31;2.42;;;0.85;;
33836;SDS011;20140;49.356;8.812;2023-05-10T10:03:58;2.42;;;0.85;;
33836;SDS011;20140;49.356;8.812;2023-05-10T10:06:23;1.35;;;1.10;;
33836;SDS011;20140;49.356;8.812;2023-05-10T10:08:50;1.40;;;0.70;;
33836;SDS011;20140;49.356;8.812;2023-05-10T10:11:16;1.20;;;0.60;;
33836;SDS011;20140;49.356;8.812;2023-05-10T10:13:42;1.02;;;0.52;;
33836;SDS011;20140;49.356;8.812;2023-05-10T10:16:08;0.77;;;0.77;;
33836;SDS011;20140;49.356;8.812;2023-05-10T10:18:35;0.80;;;0.80;;
33836;SDS011;20140;49.356;8.812;2023-05-10T10:21:04;0.68;;;0.68;;
33836;SDS011;20140;49.356;8.812;2023-05-10T10:23:31;1.50;;;0.82;;
33836;SDS011;20140;49.356;8.812;2023-05-10T10:25:57;3.47;;;0.80;;
33836;SDS011;20140;49.356;8.812;2023-05-10T10:28:26;1.50;;;0.90;;
33836;SDS011;20140;49.356;8.812;2023-05-10T10:33:57;2.00;;;0.90;;
33836;SDS011;20140;49.356;8.812;2023-05-10T10:36:24;0.90;;;0.60;;
33836;SDS011;20140;49.356;8.812;2023-05-10T10:54:49;1.37;;;0.80;;
33836;SDS011;20140;49.356;8.812;2023-05-10T11:02:57;2.20;;;0.70;;
33836;SDS011;20140;49.356;8.812;2023-05-10T11:05:42;0.50;;;0.45;;
33836;SDS011;20140;49.356;8.812;2023-05-10T11:08:31;0.80;;;0.50;;
33836;SDS011;20140;49.356;8.812;2023-05-10T11:13:31;0.80;;;0.60;;
33836;SDS011;20140;49.356;8.812;2023-05-10T11:16:20;1.40;;;0.60;;
33836;SDS011;20140;49.356;8.812;2023-05-10T11:18:52;0.60;;;0.50;;
33836;SDS011;20140;49.356;8.812;2023-05-10T11:21:18;1.60;;;0.50;;
33836;SDS011;20140;49.356;8.812;2023-05-10T11:26:14;0.60;;;0.50;;
33836;SDS011;20140;49.356;8.812;2023-05-10T11:28:44;0.90;;;0.50;;
33836;SDS011;20140;49.356;8.812;2023-05-10T11:31:12;0.50;;;0.40;;
33836;SDS011;20140;49.356;8.812;2023-05-10T11:33:43;0.93;;;0.37;;
33836;SDS011;20140;49.356;8.812;2023-05-10T11:36:15;2.28;;;0.75;;
33836;SDS011;20140;49.356;8.812;2023-05-10T11:38:45;0.60;;;0.40;;
33836;SDS011;20140;49.356;8.812;2023-05-10T11:41:12;2.88;;;0.50;;
33836;SDS011;20140;49.356;8.812;2023-05-10T11:43:38;0.90;;;0.60;;
33836;SDS011;20140;49.356;8.812;2023-05-10T11:46:09;1.38;;;0.70;;
33836;SDS011;20140;49.356;8.812;2023-05-10T11:48:38;0.40;;;0.20;;
33836;SDS011;20140;49.356;8.812;2023-05-10T11:51:05;1.67;;;0.70;;
33836;SDS011;20140;49.356;8.812;2023-05-10T11:53:32;7.18;;;1.10;;
33836;SDS011;20140;49.356;8.812;2023-05-10T11:56:08;1.03;;;0.47;;
33836;SDS011;20140;49.356;8.812;2023-05-10T11:58:35;0.93;;;0.40;;
33836;SDS011;20140;49.356;8.812;2023-05-10T12:01:01;3.67;;;0.68;;
33836;SDS011;20140;49.356;8.812;2023-05-10T12:03:28;0.88;;;0.40;;
33836;SDS011;20140;49.356;8.812;2023-05-10T12:05:54;1.55;;;0.77;;
33836;SDS011;20140;49.356;8.812;2023-05-10T12:08:27;1.77;;;1.30;;
33836;SDS011;20140;49.356;8.812;2023-05-10T12:11:03;1.10;;;0.77;;
33836;SDS011;20140;49.356;8.812;2023-05-10T12:13:36;1.13;;;0.77;;
33836;SDS011;20140;49.356;8.812;2023-05-10T12:16:13;2.33;;;1.08;;
33836;SDS011;20140;49.356;8.812;2023-05-10T12:18:41;2.60;;;1.10;;
33836;SDS011;20140;49.356;8.812;2023-05-10T12:21:07;1.30;;;1.05;;
33836;SDS011;20140;49.356;8.812;2023-05-10T12:23:35;1.60;;;1.08;;
33836;SDS011;20140;49.356;8.812;2023-05-10T12:26:04;3.80;;;1.00;;
33836;SDS011;20140;49.356;8.812;2023-05-10T12:28:30;4.23;;;1.10;;
33836;SDS011;20140;49.356;8.812;2023-05-10T12:30:57;1.35;;;1.00;;
33836;SDS011;20140;49.356;8.812;2023-05-10T12:33:23;1.40;;;0.93;;
33836;SDS011;20140;49.356;8.812;2023-05-10T12:35:50;2.73;;;0.87;;
33836;SDS011;20140;49.356;8.812;2023-05-10T12:38:26;1.77;;;0.65;;
33836;SDS011;20140;49.356;8.812;2023-05-10T12:40:54;1.33;;;0.63;;
33836;SDS011;20140;49.356;8.812;2023-05-10T12:43:23;2.15;;;0.70;;
33836;SDS011;20140;49.356;8.812;2023-05-10T12:45:49;3.30;;;0.70;;
33836;SDS011;20140;49.356;8.812;2023-05-10T12:48:15;2.20;;;0.87;;
33836;SDS011;20140;49.356;8.812;2023-05-10T12:50:40;1.52;;;0.77;;
33836;SDS011;20140;49.356;8.812;2023-05-10T12:53:06;1.38;;;0.70;;
33836;SDS011;20140;49.356;8.812;2023-05-10T12:55:31;2.95;;;0.95;;
33836;SDS011;20140;49.356;8.812;2023-05-10T12:57:57;2.67;;;1.07;;
33836;SDS011;20140;49.356;8.812;2023-05-10T13:00:22;0.77;;;0.40;;
33836;SDS011;20140;49.356;8.812;2023-05-10T13:02:48;1.83;;;0.57;;
33836;SDS011;20140;49.356;8.812;2023-05-10T13:05:13;0.87;;;0.80;;
33836;SDS011;20140;49.356;8.812;2023-05-10T13:07:39;1.23;;;0.50;;
33836;SDS011;20140;49.356;8.812;2023-05-10T13:10:05;2.70;;;0.55;;
33836;SDS011;20140;49.356;8.812;2023-05-10T13:12:31;0.50;;;0.50;;
33836;SDS011;20140;49.356;8.812;2023-05-10T13:14:57;1.40;;;0.50;;
33836;SDS011;20140;49.356;8.812;2023-05-10T13:17:24;1.80;;;0.73;;
33836;SDS011;20140;49.356;8.812;2023-05-10T13:19:50;1.60;;;0.90;;
33836;SDS011;20140;49.356;8.812;2023-05-10T13:22:16;3.28;;;0.98;;
33836;SDS011;20140;49.356;8.812;2023-05-10T13:24:41;1.52;;;0.60;;
33836;SDS011;20140;49.356;8.812;2023-05-10T13:27:07;1.03;;;0.77;;
33836;SDS011;20140;49.356;8.812;2023-05-10T13:29:32;3.30;;;1.10;;
33836;SDS011;20140;49.356;8.812;2023-05-10T13:31:58;3.17;;;0.97;;
33836;SDS011;20140;49.356;8.812;2023-05-10T13:34:24;1.70;;;0.80;;
33836;SDS011;20140;49.356;8.812;2023-05-10T13:36:49;4.38;;;0.88;;
33836;SDS011;20140;49.356;8.812;2023-05-10T13:39:15;1.65;;;0.90;;
33836;SDS011;20140;49.356;8.812;2023-05-10T13:41:41;1.33;;;0.85;;
33836;SDS011;20140;49.356;8.812;2023-05-10T13:44:07;3.35;;;0.80;;
33836;SDS011;20140;49.356;8.812;2023-05-10T13:46:32;1.67;;;0.73;;
33836;SDS011;20140;49.356;8.812;2023-05-10T13:48:58;1.90;;;0.43;;
33836;SDS011;20140;49.356;8.812;2023-05-10T13:51:23;2.60;;;0.83;;
33836;SDS011;20140;49.356;8.812;2023-05-10T13:53:49;1.50;;;1.10;;
33836;SDS011;20140;49.356;8.812;2023-05-10T13:56:14;1.60;;;1.20;;
33836;SDS011;20140;49.356;8.812;2023-05-10T13:58:40;1.20;;;0.73;;
33836;SDS011;20140;49.356;8.812;2023-05-10T14:01:06;2.40;;;0.73;;
33836;SDS011;20140;49.356;8.812;2023-05-10T14:03:31;1.52;;;0.60;;
33836;SDS011;20140;49.356;8.812;2023-05-10T14:05:57;1.67;;;0.50;;
33836;SDS011;20140;49.356;8.812;2023-05-10T14:08:23;2.33;;;0.70;;
33836;SDS011;20140;49.356;8.812;2023-05-10T14:10:48;1.60;;;0.70;;
33836;SDS011;20140;49.356;8.812;2023-05-10T14:13:15;1.73;;;0.63;;
33836;SDS011;20140;49.356;8.812;2023-05-10T14:15:41;4.17;;;1.00;;
33836;SDS011;20140;49.356;8.812;2023-05-10T14:18:06;2.53;;;0.53;;
33836;SDS011;20140;49.356;8.812;2023-05-10T14:20:32;1.60;;;0.55;;
33836;SDS011;20140;49.356;8.812;2023-05-10T14:22:58;1.73;;;0.50;;
33836;SDS011;20140;49.356;8.812;2023-05-10T14:25:25;1.23;;;0.45;;
33836;SDS011;20140;49.356;8.812;2023-05-10T14:27:50;2.03;;;1.07;;
33836;SDS011;20140;49.356;8.812;2023-05-10T14:30:19;1.70;;;0.63;;
33836;SDS011;20140;49.356;8.812;2023-05-10T14:32:44;1.40;;;0.60;;
33836;SDS011;20140;49.356;8.812;2023-05-10T14:35:10;1.57;;;0.60;;
33836;SDS011;20140;49.356;8.812;2023-05-10T14:37:36;2.70;;;0.50;;
33836;SDS011;20140;49.356;8.812;2023-05-10T14:40:01;2.17;;;0.68;;
33836;SDS011;20140;49.356;8.812;2023-05-10T14:42:29;1.20;;;0.40;;
33836;SDS011;20140;49.356;8.812;2023-05-10T14:44:54;1.37;;;0.43;;
33836;SDS011;20140;49.356;8.812;2023-05-10T14:47:20;0.50;;;0.30;;
33836;SDS011;20140;49.356;8.812;2023-05-10T14:49:45;0.70;;;0.30;;
33836;SDS011;20140;49.356;8.812;2023-05-10T14:52:11;0.82;;;0.47;;
33836;SDS011;20140;49.356;8.812;2023-05-10T14:54:37;3.65;;;0.52;;
33836;SDS011;20140;49.356;8.812;2023-05-10T14:57:03;0.57;;;0.30;;
33836;SDS011;20140;49.356;8.812;2023-05-10T14:59:29;1.50;;;0.50;;
33836;SDS011;20140;49.356;8.812;2023-05-10T15:01:54;0.70;;;0.40;;
33836;SDS011;20140;49.356;8.812;2023-05-10T15:04:20;0.90;;;0.30;;
33836;SDS011;20140;49.356;8.812;2023-05-10T15:06:46;0.60;;;0.30;;
33836;SDS011;20140;49.356;8.812;2023-05-10T15:09:11;2.00;;;0.40;;
33836;SDS011;20140;49.356;8.812;2023-05-10T15:11:40;3.22;;;0.60;;
33836;SDS011;20140;49.356;8.812;2023-05-10T15:14:05;4.97;;;0.70;;
33836;SDS011;20140;49.356;8.812;2023-05-10T15:16:31;0.50;;;0.30;;
33836;SDS011;20140;49.356;8.812;2023-05-10T15:18:56;1.23;;;0.30;;
33836;SDS011;20140;49.356;8.812;2023-05-10T15:21:22;0.60;;;0.40;;
33836;SDS011;20140;49.356;8.812;2023-05-10T15:23:48;0.65;;;0.30;;
33836;SDS011;20140;49.356;8.812;2023-05-10T15:26:13;1.10;;;0.50;;
33836;SDS011;20140;49.356;8.812;2023-05-10T15:28:39;0.33;;;0.30;;
33836;SDS011;20140;49.356;8.812;2023-05-10T15:31:04;0.43;;;0.30;;
33836;SDS011;20140;49.356;8.812;2023-05-10T15:33:30;0.50;;;0.30;;